Time;durP1;ratioP1;P1;durP2;ratioP2;P2;SDS_P1;SDS_P2;PMS_P1;PMS_P2;Temp;Humidity;BMP_temperature;BMP_pressure;BME280_temperature;BME280_humidity;BME280_pressure;Samples;Min_cycle;Max_cycle;Signal;HPM_P1;HPM_P2
2022/08/20 00:00:08;;;;;;;8.10;4.75;;;;;;;;;;5056737;28;20049;-69
2022/08/20 00:02:49;;;;;;;5.97;4.75;;;;;;;;;;5050400;28;20051;-71
2022/08/20 00:05:23;;;;;;;6.70;4.68;;;;;;;;;;5052390;28;20045;-69
2022/08/20 00:07:49;;;;;;;6.22;4.90;;;;;;;;;;5050974;28;20132;-70
2022/08/20 00:10:14;;;;;;;7.10;5.13;;;;;;;;;;5049645;28;20468;-72
2022/08/20 00:12:44;;;;;;;7.13;5.32;;;;;;;;;;5066234;28;20677;-72
2022/08/20 00:15:11;;;;;;;6.50;5.85;;;;;;;;;;5070872;28;20114;-71
2022/08/20 00:17:37;;;;;;;8.35;6.47;;;;;;;;;;5052038;28;20069;-70
2022/08/20 00:20:11;;;;;;;9.45;6.65;;;;;;;;;;5051647;28;20051;-72
2022/08/20 00:22:36;;;;;;;10.00;6.78;;;;;;;;;;5060728;28;20052;-72
2022/08/20 00:25:05;;;;;;;11.27;6.80;;;;;;;;;;5071783;28;20055;-71
2022/08/20 00:27:31;;;;;;;7.68;5.90;;;;;;;;;;5072014;28;20071;-73
2022/08/20 00:29:56;;;;;;;8.02;6.45;;;;;;;;;;5070413;28;20495;-73
2022/08/20 00:32:22;;;;;;;26.55;7.55;;;;;;;;;;5051601;28;20051;-72
2022/08/20 00:34:47;;;;;;;11.55;5.32;;;;;;;;;;5067240;28;20059;-73
2022/08/20 00:37:13;;;;;;;9.02;5.20;;;;;;;;;;5071693;28;20060;-74
2022/08/20 00:39:38;;;;;;;8.63;5.28;;;;;;;;;;5071391;28;20078;-73
2022/08/20 00:42:04;;;;;;;6.25;4.90;;;;;;;;;;5071574;28;20578;-72
2022/08/20 00:44:30;;;;;;;3.40;3.10;;;;;;;;;;5055485;28;20411;-71
2022/08/20 00:46:55;;;;;;;2.58;2.38;;;;;;;;;;5054425;28;20115;-72
2022/08/20 00:49:28;;;;;;;2.70;2.50;;;;;;;;;;5051069;28;20087;-73
2022/08/20 00:52:01;;;;;;;1.90;1.70;;;;;;;;;;5051130;28;20044;-72
2022/08/20 00:54:43;;;;;;;3.15;1.77;;;;;;;;;;5055570;28;20051;-72
2022/08/20 00:57:23;;;;;;;1.90;1.52;;;;;;;;;;5049552;28;20049;-72
2022/08/20 00:59:50;;;;;;;9.88;2.20;;;;;;;;;;5049842;28;20094;-72
2022/08/20 01:02:17;;;;;;;5.47;1.85;;;;;;;;;;5050727;28;20415;-73
2022/08/20 01:05:04;;;;;;;1.77;1.42;;;;;;;;;;5048270;28;20074;-72
2022/08/20 01:07:39;;;;;;;22.20;1.80;;;;;;;;;;5064243;28;20042;-73
2022/08/20 01:10:12;;;;;;;13.05;2.45;;;;;;;;;;5070714;28;20083;-70
2022/08/20 01:12:40;;;;;;;13.30;1.85;;;;;;;;;;5068895;28;20442;-73
2022/08/20 01:15:11;;;;;;;6.35;1.40;;;;;;;;;;5070284;28;20040;-73
2022/08/20 01:17:43;;;;;;;5.97;1.33;;;;;;;;;;5058995;28;20044;-73
2022/08/20 01:20:25;;;;;;;1.20;1.10;;;;;;;;;;5070431;28;20063;-73
2022/08/20 01:25:59;;;;;;;4.25;1.50;;;;;;;;;;5070660;28;20090;-74
2022/08/20 01:28:32;;;;;;;2.58;1.40;;;;;;;;;;5054743;28;20040;-73
2022/08/20 01:30:58;;;;;;;7.55;1.40;;;;;;;;;;5062543;28;20134;-72
2022/08/20 01:33:24;;;;;;;71.03;2.65;;;;;;;;;;5050394;28;20474;-73
2022/08/20 01:35:51;;;;;;;18.67;1.45;;;;;;;;;;5049280;28;20047;-74
2022/08/20 01:38:17;;;;;;;9.30;1.40;;;;;;;;;;5049323;28;20128;-73
2022/08/20 01:41:20;;;;;;;11.75;1.48;;;;;;;;;;5065041;28;20052;-73
2022/08/20 01:43:48;;;;;;;2.00;1.35;;;;;;;;;;5054552;28;20064;-73
2022/08/20 01:46:14;;;;;;;1.40;1.20;;;;;;;;;;5058823;28;20045;-70
2022/08/20 01:48:41;;;;;;;1.20;1.10;;;;;;;;;;5048341;28;20025;-73
2022/08/20 01:51:15;;;;;;;1.20;1.10;;;;;;;;;;5058735;28;20052;-72
2022/08/20 01:53:49;;;;;;;1.80;1.20;;;;;;;;;;5070283;28;20101;-73
2022/08/20 01:56:19;;;;;;;1.83;1.20;;;;;;;;;;5068750;28;20059;-73
2022/08/20 01:58:49;;;;;;;2.00;1.40;;;;;;;;;;5069589;28;20052;-72
2022/08/20 02:01:41;;;;;;;2.72;2.05;;;;;;;;;;5049155;28;20052;-74
2022/08/20 02:04:09;;;;;;;7.28;2.47;;;;;;;;;;5062518;28;20048;-73
2022/08/20 02:06:39;;;;;;;4.00;3.25;;;;;;;;;;5069443;28;20430;-73
2022/08/20 02:09:06;;;;;;;6.30;3.70;;;;;;;;;;5070065;28;20048;-73
2022/08/20 02:11:33;;;;;;;10.00;4.38;;;;;;;;;;5056567;28;20099;-73
2022/08/20 02:13:59;;;;;;;6.97;3.88;;;;;;;;;;5067580;28;20052;-73
2022/08/20 02:16:31;;;;;;;5.07;3.85;;;;;;;;;;5056601;28;20048;-75
2022/08/20 02:19:01;;;;;;;8.60;3.70;;;;;;;;;;5047871;28;20071;-73
2022/08/20 02:21:32;;;;;;;4.60;3.75;;;;;;;;;;5048475;28;20049;-73
2022/08/20 02:23:58;;;;;;;9.85;4.68;;;;;;;;;;5057651;28;20063;-73
2022/08/20 02:26:25;;;;;;;5.55;4.45;;;;;;;;;;5069587;28;20067;-74
2022/08/20 02:28:52;;;;;;;5.60;4.18;;;;;;;;;;5069155;28;20127;-73
2022/08/20 02:31:21;;;;;;;4.43;3.78;;;;;;;;;;5057414;28;20055;-74
2022/08/20 02:33:48;;;;;;;5.13;4.18;;;;;;;;;;5048594;28;20064;-74
2022/08/20 02:36:16;;;;;;;4.07;3.67;;;;;;;;;;5069329;28;20053;-71
2022/08/20 02:38:43;;;;;;;4.32;3.90;;;;;;;;;;5068934;28;20057;-74
2022/08/20 02:41:09;;;;;;;8.07;4.20;;;;;;;;;;5069214;28;20062;-71
2022/08/20 02:43:35;;;;;;;4.72;3.58;;;;;;;;;;5064572;28;20044;-71
2022/08/20 02:46:01;;;;;;;4.20;3.80;;;;;;;;;;5051038;28;20525;-73
2022/08/20 02:48:27;;;;;;;3.30;3.00;;;;;;;;;;5049535;28;20140;-74
2022/08/20 02:51:00;;;;;;;3.33;3.00;;;;;;;;;;5046894;28;20526;-74
2022/08/20 02:53:28;;;;;;;3.60;3.30;;;;;;;;;;5049454;28;20503;-74
2022/08/20 02:55:54;;;;;;;7.57;3.53;;;;;;;;;;5057137;28;20110;-74
2022/08/20 02:58:21;;;;;;;4.63;4.00;;;;;;;;;;5067850;28;20076;-74
2022/08/20 03:00:48;;;;;;;4.70;3.75;;;;;;;;;;5062505;28;20126;-74
2022/08/20 03:03:14;;;;;;;7.78;4.18;;;;;;;;;;5047826;28;20041;-74
2022/08/20 03:05:43;;;;;;;5.07;4.32;;;;;;;;;;5047132;28;20447;-74
2022/08/20 03:08:10;;;;;;;5.10;4.32;;;;;;;;;;5058648;28;20033;-74
2022/08/20 03:10:38;;;;;;;8.85;3.88;;;;;;;;;;5068179;28;20047;-74
2022/08/20 03:13:05;;;;;;;4.20;3.80;;;;;;;;;;5069011;28;20491;-74
2022/08/20 03:15:32;;;;;;;9.40;3.17;;;;;;;;;;5064549;28;20049;-73
2022/08/20 03:17:58;;;;;;;4.13;3.10;;;;;;;;;;5050885;28;20055;-74
2022/08/20 03:20:25;;;;;;;3.60;3.30;;;;;;;;;;5067480;28;20048;-74
2022/08/20 03:22:50;;;;;;;4.53;2.97;;;;;;;;;;5068467;28;20119;-74
2022/08/20 03:25:16;;;;;;;5.25;3.35;;;;;;;;;;5069074;28;20140;-74
2022/08/20 03:27:42;;;;;;;8.00;3.45;;;;;;;;;;5061821;28;20081;-73
2022/08/20 03:30:10;;;;;;;4.15;3.28;;;;;;;;;;5057125;28;20503;-73
2022/08/20 03:32:36;;;;;;;4.60;3.20;;;;;;;;;;5048335;28;20079;-74
2022/08/20 03:35:03;;;;;;;5.88;4.25;;;;;;;;;;5049087;28;20053;-74
2022/08/20 03:37:31;;;;;;;5.70;3.72;;;;;;;;;;5048996;28;20102;-74
2022/08/20 03:39:57;;;;;;;4.15;3.42;;;;;;;;;;5048597;28;20041;-74
2022/08/20 03:42:23;;;;;;;3.88;3.08;;;;;;;;;;5049566;28;20064;-73
2022/08/20 03:44:48;;;;;;;5.03;3.47;;;;;;;;;;5050409;28;20542;-73
2022/08/20 03:47:14;;;;;;;4.40;3.47;;;;;;;;;;5050538;28;20045;-73
2022/08/20 03:49:39;;;;;;;6.18;4.13;;;;;;;;;;5047621;28;20095;-73
2022/08/20 03:52:05;;;;;;;4.88;4.40;;;;;;;;;;5060240;28;20490;-73
2022/08/20 03:54:30;;;;;;;5.70;4.57;;;;;;;;;;5070376;28;20128;-73
2022/08/20 03:56:56;;;;;;;5.68;5.03;;;;;;;;;;5057940;28;20520;-73
2022/08/20 03:59:21;;;;;;;7.30;5.13;;;;;;;;;;5049710;28;20086;-71
2022/08/20 04:01:47;;;;;;;6.80;5.15;;;;;;;;;;5064781;28;20048;-71
2022/08/20 04:04:13;;;;;;;11.07;6.80;;;;;;;;;;5070648;28;20044;-74
2022/08/20 04:06:40;;;;;;;12.02;9.10;;;;;;;;;;5070388;28;20036;-73
2022/08/20 04:09:05;;;;;;;18.05;10.80;;;;;;;;;;5070816;28;20041;-73
2022/08/20 04:11:32;;;;;;;20.13;12.30;;;;;;;;;;5067288;28;20423;-73
2022/08/20 04:13:58;;;;;;;17.40;10.52;;;;;;;;;;5061225;28;20040;-74
2022/08/20 04:16:23;;;;;;;20.88;13.75;;;;;;;;;;5060967;28;20720;-73
2022/08/20 04:18:49;;;;;;;21.92;15.32;;;;;;;;;;5051415;28;20061;-74
2022/08/20 04:21:14;;;;;;;25.02;16.40;;;;;;;;;;5050355;28;20049;-73
2022/08/20 04:23:39;;;;;;;25.50;16.27;;;;;;;;;;5050866;28;20048;-72
2022/08/20 04:26:05;;;;;;;25.42;15.90;;;;;;;;;;5068821;28;20080;-72
2022/08/20 04:28:32;;;;;;;27.85;17.25;;;;;;;;;;5069957;28;20037;-74
2022/08/20 04:30:59;;;;;;;28.70;18.00;;;;;;;;;;5062733;28;20049;-73
2022/08/20 04:33:26;;;;;;;33.00;18.65;;;;;;;;;;5051009;28;20148;-73
2022/08/20 04:35:53;;;;;;;27.20;16.77;;;;;;;;;;5060211;28;20036;-72
2022/08/20 04:38:21;;;;;;;29.30;16.85;;;;;;;;;;5071856;28;20045;-74
2022/08/20 04:40:52;;;;;;;26.58;16.63;;;;;;;;;;5070650;28;20044;-72
2022/08/20 04:43:29;;;;;;;32.03;18.58;;;;;;;;;;5071462;28;20088;-72
2022/08/20 04:45:56;;;;;;;30.42;19.77;;;;;;;;;;5057242;28;20052;-72
2022/08/20 04:48:23;;;;;;;34.22;19.80;;;;;;;;;;5064090;28;20045;-73
2022/08/20 04:50:51;;;;;;;29.27;18.83;;;;;;;;;;5070151;28;20105;-72
2022/08/20 04:53:18;;;;;;;28.63;18.63;;;;;;;;;;5069886;28;20044;-73
2022/08/20 04:55:44;;;;;;;31.13;17.42;;;;;;;;;;5064954;28;20411;-73
2022/08/20 04:58:21;;;;;;;29.35;17.10;;;;;;;;;;5070310;28;20052;-73
2022/08/20 05:00:53;;;;;;;31.75;18.67;;;;;;;;;;5063063;28;20093;-73
2022/08/20 05:03:19;;;;;;;29.30;18.83;;;;;;;;;;5050078;28;20048;-73
2022/08/20 05:05:45;;;;;;;30.00;19.42;;;;;;;;;;5051190;28;20049;-73
2022/08/20 05:08:11;;;;;;;27.20;18.35;;;;;;;;;;5061253;28;20180;-73
2022/08/20 05:10:38;;;;;;;27.52;19.15;;;;;;;;;;5070163;28;20052;-73
2022/08/20 05:13:04;;;;;;;28.10;17.88;;;;;;;;;;5070823;28;20123;-73
2022/08/20 05:15:30;;;;;;;27.85;17.13;;;;;;;;;;5065691;28;20040;-74
2022/08/20 05:18:04;;;;;;;30.33;17.88;;;;;;;;;;5050694;28;20048;-73
2022/08/20 05:20:33;;;;;;;26.83;17.65;;;;;;;;;;5055199;28;20040;-75
2022/08/20 05:22:59;;;;;;;27.85;17.85;;;;;;;;;;5032334;28;20045;-74
2022/08/20 05:25:28;;;;;;;27.25;17.55;;;;;;;;;;5049401;28;20041;-73
2022/08/20 05:28:06;;;;;;;27.27;17.77;;;;;;;;;;5049457;28;20491;-72
2022/08/20 05:30:34;;;;;;;29.08;16.38;;;;;;;;;;5051139;28;20052;-72
2022/08/20 05:33:02;;;;;;;23.60;15.88;;;;;;;;;;5049164;28;20166;-73
2022/08/20 05:35:29;;;;;;;28.83;17.02;;;;;;;;;;5049302;28;20056;-73
2022/08/20 05:37:56;;;;;;;27.52;16.98;;;;;;;;;;5049080;28;20088;-73
2022/08/20 05:40:22;;;;;;;27.15;16.45;;;;;;;;;;5049196;28;20484;-73
2022/08/20 05:42:48;;;;;;;26.88;16.85;;;;;;;;;;5048167;28;20048;-74
2022/08/20 05:45:16;;;;;;;24.52;15.90;;;;;;;;;;5050368;28;20056;-73
2022/08/20 05:47:43;;;;;;;24.40;16.10;;;;;;;;;;5049015;28;20546;-73
2022/08/20 05:50:10;;;;;;;27.83;16.35;;;;;;;;;;5049080;28;20095;-71
2022/08/20 05:52:36;;;;;;;29.27;17.85;;;;;;;;;;5048862;28;20045;-73
2022/08/20 05:55:08;;;;;;;26.38;16.33;;;;;;;;;;5052028;28;20055;-73
2022/08/20 05:57:33;;;;;;;25.08;17.02;;;;;;;;;;5069914;28;20049;-73
2022/08/20 06:00:01;;;;;;;25.75;16.88;;;;;;;;;;5068364;28;20066;-74
2022/08/20 06:05:22;;;;;;;24.83;16.90;;;;;;;;;;5055348;28;20161;-73
2022/08/20 06:07:49;;;;;;;28.27;17.52;;;;;;;;;;5051849;28;20131;-73
2022/08/20 06:10:16;;;;;;;27.15;16.17;;;;;;;;;;5068307;28;20044;-72
2022/08/20 06:12:43;;;;;;;26.13;16.27;;;;;;;;;;5063230;28;20139;-73
2022/08/20 06:15:09;;;;;;;28.27;17.35;;;;;;;;;;5067233;28;20045;-72
2022/08/20 06:17:34;;;;;;;26.30;16.33;;;;;;;;;;5049712;28;20052;-73
2022/08/20 06:20:05;;;;;;;25.27;16.23;;;;;;;;;;5049375;28;20418;-72
2022/08/20 06:22:30;;;;;;;26.02;16.55;;;;;;;;;;5047832;28;20116;-75
2022/08/20 06:24:56;;;;;;;20.83;14.98;;;;;;;;;;5057985;28;20585;-72
2022/08/20 06:27:22;;;;;;;28.52;16.40;;;;;;;;;;5067888;28;20049;-72
2022/08/20 06:29:49;;;;;;;26.88;16.25;;;;;;;;;;5069515;28;20047;-75
2022/08/20 06:32:14;;;;;;;22.88;15.52;;;;;;;;;;5051516;28;20502;-75
2022/08/20 06:34:40;;;;;;;25.65;15.45;;;;;;;;;;5030202;28;20060;-72
2022/08/20 06:37:14;;;;;;;24.17;15.45;;;;;;;;;;5049779;28;20137;-76
2022/08/20 06:39:41;;;;;;;25.98;14.38;;;;;;;;;;5068097;28;20044;-71
2022/08/20 06:42:06;;;;;;;21.17;14.45;;;;;;;;;;5068082;28;20044;-73
2022/08/20 06:44:32;;;;;;;24.80;15.48;;;;;;;;;;5068802;28;20052;-73
2022/08/20 06:47:02;;;;;;;21.85;14.55;;;;;;;;;;5061770;28;20392;-72
2022/08/20 06:49:29;;;;;;;23.92;14.93;;;;;;;;;;5067824;28;20044;-74
2022/08/20 06:51:54;;;;;;;21.20;14.80;;;;;;;;;;5070204;28;20044;-71
2022/08/20 06:54:20;;;;;;;22.20;15.63;;;;;;;;;;5069375;28;20135;-71
2022/08/20 06:56:45;;;;;;;22.85;15.05;;;;;;;;;;5061130;28;20076;-72
2022/08/20 06:59:10;;;;;;;20.15;14.18;;;;;;;;;;5068478;28;20049;-72
2022/08/20 07:01:36;;;;;;;22.00;14.88;;;;;;;;;;5056150;28;20495;-71
2022/08/20 07:04:01;;;;;;;22.33;13.73;;;;;;;;;;5049423;28;20044;-72
2022/08/20 07:06:27;;;;;;;21.38;14.73;;;;;;;;;;5049230;28;20136;-71
2022/08/20 07:08:54;;;;;;;24.75;16.25;;;;;;;;;;5056101;28;20056;-72
2022/08/20 07:11:20;;;;;;;22.40;14.32;;;;;;;;;;5068714;28;20048;-74
2022/08/20 07:13:47;;;;;;;23.05;13.00;;;;;;;;;;5069064;28;20052;-71
2022/08/20 07:16:13;;;;;;;19.77;14.02;;;;;;;;;;5059452;28;20491;-72
2022/08/20 07:18:39;;;;;;;19.92;14.80;;;;;;;;;;5047465;28;20052;-72
2022/08/20 07:21:04;;;;;;;25.45;15.27;;;;;;;;;;5058723;28;20094;-71
2022/08/20 07:23:30;;;;;;;23.77;14.73;;;;;;;;;;5068933;28;20487;-71
2022/08/20 07:25:56;;;;;;;20.67;14.88;;;;;;;;;;5069908;28;20160;-71
2022/08/20 07:28:24;;;;;;;24.40;15.75;;;;;;;;;;5073139;28;20089;-72
2022/08/20 07:33:36;;;;;;;20.42;14.05;;;;;;;;;;5061450;28;20060;-71
2022/08/20 07:36:05;;;;;;;22.23;14.30;;;;;;;;;;5071280;28;20048;-72
2022/08/20 07:38:31;;;;;;;20.60;16.08;;;;;;;;;;5072572;28;20059;-71
2022/08/20 07:41:08;;;;;;;23.63;15.00;;;;;;;;;;5064672;28;20472;-71
2022/08/20 07:43:34;;;;;;;20.58;14.18;;;;;;;;;;5072184;28;20082;-71
2022/08/20 07:46:01;;;;;;;23.48;14.80;;;;;;;;;;5064729;28;20040;-73
2022/08/20 07:48:29;;;;;;;26.13;16.17;;;;;;;;;;5052624;28;20025;-72
2022/08/20 07:50:56;;;;;;;22.85;14.95;;;;;;;;;;5051429;28;20049;-72
2022/08/20 07:53:21;;;;;;;23.23;14.80;;;;;;;;;;5063957;28;20037;-72
2022/08/20 07:55:47;;;;;;;24.95;15.32;;;;;;;;;;5072474;28;20056;-71
2022/08/20 07:58:16;;;;;;;22.20;14.85;;;;;;;;;;5070841;28;20084;-72
2022/08/20 08:00:42;;;;;;;25.65;15.65;;;;;;;;;;5047956;28;20048;-73
2022/08/20 08:03:08;;;;;;;21.85;14.75;;;;;;;;;;5053711;28;20052;-72
2022/08/20 08:05:37;;;;;;;22.23;14.57;;;;;;;;;;5072054;28;20429;-74
2022/08/20 08:08:08;;;;;;;24.02;14.63;;;;;;;;;;5070917;28;20075;-75
2022/08/20 08:10:35;;;;;;;24.55;14.07;;;;;;;;;;5071449;28;20059;-75
2022/08/20 08:13:04;;;;;;;17.48;12.48;;;;;;;;;;5070111;28;20098;-73
2022/08/20 08:15:32;;;;;;;20.98;13.27;;;;;;;;;;5061307;28;20037;-73
2022/08/20 08:18:05;;;;;;;25.45;15.65;;;;;;;;;;5051967;28;20094;-75
2022/08/20 08:20:30;;;;;;;23.52;14.98;;;;;;;;;;5051720;28;20044;-75
2022/08/20 08:22:56;;;;;;;25.27;15.80;;;;;;;;;;5051483;28;20467;-72
2022/08/20 08:25:21;;;;;;;26.23;16.65;;;;;;;;;;5050766;28;20044;-74
2022/08/20 08:27:47;;;;;;;18.55;13.23;;;;;;;;;;5066339;28;20067;-72
2022/08/20 08:30:14;;;;;;;18.95;13.85;;;;;;;;;;5070265;28;20064;-71
2022/08/20 08:33:26;;;;;;;20.17;14.32;;;;;;;;;;5049790;28;20115;-72
2022/08/20 08:35:25;;;;;;;22.83;14.82;;;;;;;;;;5050639;28;20709;-71
2022/08/20 08:37:50;;;;;;;20.35;14.15;;;;;;;;;;5067714;28;20072;-73
2022/08/20 08:40:16;;;;;;;19.85;14.50;;;;;;;;;;5070008;28;20159;-72
2022/08/20 08:42:45;;;;;;;21.17;14.07;;;;;;;;;;5069574;28;20048;-73
2022/08/20 08:45:14;;;;;;;19.45;13.73;;;;;;;;;;5070356;28;20041;-73
2022/08/20 08:47:40;;;;;;;24.45;14.88;;;;;;;;;;5056001;28;20048;-72
2022/08/20 08:50:14;;;;;;;24.05;15.93;;;;;;;;;;5070805;28;20049;-73
2022/08/20 08:52:40;;;;;;;27.73;14.40;;;;;;;;;;5070591;28;20479;-72
2022/08/20 08:55:14;;;;;;;21.27;14.45;;;;;;;;;;5071406;28;20044;-73
2022/08/20 08:57:40;;;;;;;20.13;14.02;;;;;;;;;;5065312;28;20411;-73
2022/08/20 09:00:12;;;;;;;24.42;14.95;;;;;;;;;;5067933;28;20044;-73
2022/08/20 09:02:41;;;;;;;20.20;13.43;;;;;;;;;;5050563;28;20471;-72
2022/08/20 09:05:15;;;;;;;25.00;15.00;;;;;;;;;;5049808;28;20041;-73
2022/08/20 09:07:44;;;;;;;18.98;13.93;;;;;;;;;;5051196;28;20102;-72
2022/08/20 09:10:10;;;;;;;23.88;15.65;;;;;;;;;;5042915;28;20037;-72
2022/08/20 09:12:35;;;;;;;19.83;14.50;;;;;;;;;;5068766;28;20407;-73
2022/08/20 09:15:01;;;;;;;25.17;15.25;;;;;;;;;;5071062;28;20123;-72
2022/08/20 09:17:26;;;;;;;20.35;14.30;;;;;;;;;;5051009;28;20495;-73
2022/08/20 09:19:52;;;;;;;19.10;14.02;;;;;;;;;;5048190;28;20053;-72
2022/08/20 09:22:21;;;;;;;17.83;12.70;;;;;;;;;;5061079;28;20048;-72
2022/08/20 09:24:48;;;;;;;19.02;13.32;;;;;;;;;;5068941;28;20041;-72
2022/08/20 09:27:13;;;;;;;16.20;12.02;;;;;;;;;;5069413;28;20094;-72
2022/08/20 09:29:39;;;;;;;18.00;12.13;;;;;;;;;;5070816;28;20052;-73
2022/08/20 09:32:08;;;;;;;21.40;14.18;;;;;;;;;;5036614;28;20052;-73
2022/08/20 09:34:45;;;;;;;19.65;13.38;;;;;;;;;;5069998;28;20058;-74
2022/08/20 09:37:13;;;;;;;16.55;12.48;;;;;;;;;;5070500;28;20507;-73
2022/08/20 09:39:39;;;;;;;18.20;13.10;;;;;;;;;;5070502;28;20054;-73
2022/08/20 09:42:14;;;;;;;22.52;14.02;;;;;;;;;;5060886;28;20131;-73
2022/08/20 09:44:40;;;;;;;18.55;13.48;;;;;;;;;;5063340;28;20055;-72
2022/08/20 09:47:05;;;;;;;18.90;14.07;;;;;;;;;;5053228;28;20049;-73
2022/08/20 09:49:31;;;;;;;17.15;13.32;;;;;;;;;;5049751;28;20056;-73
2022/08/20 09:51:59;;;;;;;20.63;12.85;;;;;;;;;;5048505;28;20140;-73
2022/08/20 09:54:28;;;;;;;16.30;12.63;;;;;;;;;;5052571;28;20040;-72
2022/08/20 09:56:56;;;;;;;16.58;12.82;;;;;;;;;;5068003;28;20410;-72
2022/08/20 09:59:22;;;;;;;20.98;14.45;;;;;;;;;;5069990;28;20060;-73
2022/08/20 10:01:48;;;;;;;15.57;12.50;;;;;;;;;;5053875;28;20068;-73
2022/08/20 10:04:13;;;;;;;16.60;11.77;;;;;;;;;;5039983;28;20067;-72
2022/08/20 10:06:40;;;;;;;14.27;11.43;;;;;;;;;;5069164;28;20052;-72
2022/08/20 10:09:05;;;;;;;15.48;11.75;;;;;;;;;;5068534;28;20119;-72
2022/08/20 10:11:31;;;;;;;12.02;10.23;;;;;;;;;;5068021;28;20066;-76
2022/08/20 10:13:56;;;;;;;14.35;11.30;;;;;;;;;;5068557;28;20052;-73
2022/08/20 10:16:22;;;;;;;17.30;14.10;;;;;;;;;;5051470;28;20087;-73
2022/08/20 10:18:50;;;;;;;18.42;14.18;;;;;;;;;;5065087;28;20114;-73
2022/08/20 10:21:16;;;;;;;16.30;12.07;;;;;;;;;;5069360;28;20045;-73
2022/08/20 10:23:41;;;;;;;16.13;12.55;;;;;;;;;;5069440;28;20418;-73
2022/08/20 10:26:11;;;;;;;14.18;12.07;;;;;;;;;;5059617;28;20076;-73
2022/08/20 10:28:37;;;;;;;15.10;12.30;;;;;;;;;;5054146;28;20495;-73
2022/08/20 10:31:07;;;;;;;15.35;11.95;;;;;;;;;;5061194;28;20053;-73
2022/08/20 10:33:32;;;;;;;15.38;11.77;;;;;;;;;;5049659;28;20052;-73
2022/08/20 10:36:06;;;;;;;15.20;12.80;;;;;;;;;;5048230;28;20048;-73
2022/08/20 10:38:31;;;;;;;16.75;11.32;;;;;;;;;;5080720;22;20036;-67
2022/08/20 10:40:56;;;;;;;13.95;11.27;;;;;;;;;;5067893;28;20053;-67
2022/08/20 10:43:22;;;;;;;15.18;12.02;;;;;;;;;;5069460;28;20123;-67
2022/08/20 10:45:47;;;;;;;14.15;12.25;;;;;;;;;;5063169;28;20049;-68
2022/08/20 10:48:13;;;;;;;16.65;11.68;;;;;;;;;;5049638;28;20048;-68
2022/08/20 10:50:38;;;;;;;15.32;11.75;;;;;;;;;;5033756;28;20551;-67
2022/08/20 10:53:03;;;;;;;14.25;12.75;;;;;;;;;;5029572;28;20045;-66
2022/08/20 10:55:29;;;;;;;16.17;12.43;;;;;;;;;;5029632;28;20056;-67
2022/08/20 10:57:55;;;;;;;13.70;12.25;;;;;;;;;;5029353;28;20041;-67
2022/08/20 11:00:21;;;;;;;17.02;12.65;;;;;;;;;;5044672;28;20052;-67
2022/08/20 11:02:46;;;;;;;17.35;13.00;;;;;;;;;;5065102;28;20513;-67
2022/08/20 11:05:12;;;;;;;14.27;11.65;;;;;;;;;;5073589;28;20052;-67
2022/08/20 11:07:40;;;;;;;17.38;12.80;;;;;;;;;;5073567;28;20498;-67
2022/08/20 11:10:08;;;;;;;15.50;12.27;;;;;;;;;;5063495;28;20075;-67
2022/08/20 11:12:33;;;;;;;15.05;13.05;;;;;;;;;;5038488;28;20045;-69
2022/08/20 11:14:58;;;;;;;14.90;12.90;;;;;;;;;;5033313;28;20084;-67
2022/08/20 11:17:27;;;;;;;12.75;11.30;;;;;;;;;;5033329;28;20076;-67
2022/08/20 11:19:54;;;;;;;18.02;12.43;;;;;;;;;;5033386;28;20122;-67
2022/08/20 11:22:20;;;;;;;16.80;12.82;;;;;;;;;;5062627;28;20056;-67
2022/08/20 11:24:45;;;;;;;19.10;13.15;;;;;;;;;;5040779;28;20049;-68
2022/08/20 11:27:20;;;;;;;14.98;11.93;;;;;;;;;;5033123;28;20057;-67
2022/08/20 11:29:46;;;;;;;15.18;12.75;;;;;;;;;;5033235;28;20045;-68
2022/08/20 11:32:11;;;;;;;14.32;11.85;;;;;;;;;;5049219;28;20093;-67
2022/08/20 11:34:37;;;;;;;15.40;12.60;;;;;;;;;;5066960;28;20056;-68
2022/08/20 11:37:02;;;;;;;15.27;12.13;;;;;;;;;;5072862;28;20122;-68
2022/08/20 11:39:28;;;;;;;12.70;11.13;;;;;;;;;;5072558;28;20414;-67
2022/08/20 11:41:53;;;;;;;14.02;10.82;;;;;;;;;;5072380;28;20094;-67
2022/08/20 11:44:19;;;;;;;12.88;11.00;;;;;;;;;;5045477;28;20479;-67
2022/08/20 11:46:44;;;;;;;12.38;11.02;;;;;;;;;;5050235;28;20263;-67
2022/08/20 11:49:09;;;;;;;11.45;10.25;;;;;;;;;;5051326;28;20049;-67
2022/08/20 11:51:36;;;;;;;16.33;11.50;;;;;;;;;;5052158;28;20045;-67
2022/08/20 11:54:02;;;;;;;12.32;10.77;;;;;;;;;;5051498;28;20033;-67
2022/08/20 11:56:28;;;;;;;15.00;12.73;;;;;;;;;;5065882;28;20036;-67
2022/08/20 11:58:53;;;;;;;12.63;10.50;;;;;;;;;;5072261;28;20413;-67
2022/08/20 12:01:19;;;;;;;13.35;10.40;;;;;;;;;;5061794;28;20433;-68
2022/08/20 12:03:44;;;;;;;12.27;10.65;;;;;;;;;;5051622;28;20333;-67
2022/08/20 12:06:09;;;;;;;11.00;9.75;;;;;;;;;;5048414;28;20511;-67
2022/08/20 12:08:35;;;;;;;14.43;10.52;;;;;;;;;;5060692;28;20048;-68
2022/08/20 12:11:02;;;;;;;12.98;11.05;;;;;;;;;;5071976;28;20056;-67
2022/08/20 12:13:30;;;;;;;12.18;10.88;;;;;;;;;;5072024;28;20044;-68
2022/08/20 12:15:56;;;;;;;13.75;12.30;;;;;;;;;;5063843;28;20566;-68
2022/08/20 12:18:21;;;;;;;13.55;12.15;;;;;;;;;;5063217;28;20398;-68
2022/08/20 12:20:47;;;;;;;13.38;11.85;;;;;;;;;;5071311;28;20497;-68
2022/08/20 12:23:12;;;;;;;14.48;12.32;;;;;;;;;;5072251;28;20079;-67
2022/08/20 12:25:38;;;;;;;17.02;14.68;;;;;;;;;;5072134;28;20043;-67
2022/08/20 12:28:04;;;;;;;16.52;14.38;;;;;;;;;;5053204;28;20491;-68
2022/08/20 12:30:31;;;;;;;18.17;14.70;;;;;;;;;;5058181;28;20044;-67
2022/08/20 12:32:56;;;;;;;19.80;14.68;;;;;;;;;;5031460;28;20045;-68
2022/08/20 12:35:23;;;;;;;16.55;13.43;;;;;;;;;;5031854;28;20084;-67
2022/08/20 12:37:49;;;;;;;16.38;14.23;;;;;;;;;;5036755;28;20506;-67
2022/08/20 12:40:20;;;;;;;16.58;13.73;;;;;;;;;;5050731;28;20056;-67
2022/08/20 12:42:45;;;;;;;18.38;14.55;;;;;;;;;;5051235;28;20045;-67
2022/08/20 12:45:11;;;;;;;20.45;15.75;;;;;;;;;;5050686;28;20107;-66
2022/08/20 12:47:39;;;;;;;18.60;15.27;;;;;;;;;;5031747;28;20045;-68
2022/08/20 12:50:14;;;;;;;21.83;15.98;;;;;;;;;;5036716;28;20491;-67
2022/08/20 12:52:39;;;;;;;19.80;15.55;;;;;;;;;;5031148;28;20487;-67
2022/08/20 12:55:07;;;;;;;19.88;16.45;;;;;;;;;;5031796;28;20102;-68
2022/08/20 12:57:40;;;;;;;24.27;17.20;;;;;;;;;;5030373;28;20042;-67
2022/08/20 13:00:15;;;;;;;21.05;16.92;;;;;;;;;;5046528;28;20491;-67
2022/08/20 13:02:41;;;;;;;21.90;17.98;;;;;;;;;;5030653;28;20064;-67
2022/08/20 13:05:10;;;;;;;23.38;18.30;;;;;;;;;;5030443;28;20045;-67
2022/08/20 13:07:37;;;;;;;24.80;19.77;;;;;;;;;;5030386;28;20049;-68
2022/08/20 13:10:04;;;;;;;25.33;19.25;;;;;;;;;;5038402;28;20041;-67
2022/08/20 13:12:29;;;;;;;28.05;19.60;;;;;;;;;;5070735;28;20531;-66
2022/08/20 13:14:55;;;;;;;22.38;19.27;;;;;;;;;;5069252;28;20048;-67
2022/08/20 13:17:21;;;;;;;22.40;17.85;;;;;;;;;;5033079;28;20049;-66
2022/08/20 13:19:46;;;;;;;23.15;18.90;;;;;;;;;;5031128;28;20046;-67
2022/08/20 13:22:12;;;;;;;21.92;17.65;;;;;;;;;;5050267;28;20044;-67
2022/08/20 13:24:38;;;;;;;25.55;18.00;;;;;;;;;;5039922;28;20053;-67
2022/08/20 13:27:10;;;;;;;25.95;20.08;;;;;;;;;;5030975;28;20050;-67
2022/08/20 13:29:35;;;;;;;23.27;19.55;;;;;;;;;;5031220;28;20037;-67
2022/08/20 13:32:02;;;;;;;21.10;17.20;;;;;;;;;;5045791;28;20519;-67
2022/08/20 13:34:27;;;;;;;23.45;16.33;;;;;;;;;;5050759;28;20045;-67
2022/08/20 13:36:54;;;;;;;21.55;17.17;;;;;;;;;;5050083;28;20053;-67
2022/08/20 13:39:20;;;;;;;20.83;17.20;;;;;;;;;;5050538;28;20053;-66
2022/08/20 13:41:46;;;;;;;20.45;17.90;;;;;;;;;;5049837;28;20421;-66
2022/08/20 13:44:11;;;;;;;19.23;15.80;;;;;;;;;;5046608;28;20515;-68
2022/08/20 13:46:36;;;;;;;18.80;15.65;;;;;;;;;;5046181;28;20484;-65
2022/08/20 13:49:02;;;;;;;20.02;15.90;;;;;;;;;;5050545;28;20040;-65
2022/08/20 13:51:28;;;;;;;21.52;17.35;;;;;;;;;;5049870;28;20057;-66
2022/08/20 13:53:53;;;;;;;24.85;18.58;;;;;;;;;;5049556;28;20068;-66
2022/08/20 13:56:19;;;;;;;22.35;18.25;;;;;;;;;;5062490;28;20042;-66
2022/08/20 13:58:44;;;;;;;22.52;18.33;;;;;;;;;;5069367;28;20048;-66
2022/08/20 14:01:10;;;;;;;21.35;17.90;;;;;;;;;;5060690;28;20048;-66
2022/08/20 14:03:35;;;;;;;20.10;17.63;;;;;;;;;;5050133;28;20051;-66
2022/08/20 14:06:01;;;;;;;21.70;17.38;;;;;;;;;;5050688;28;20098;-67
2022/08/20 14:08:27;;;;;;;20.80;17.17;;;;;;;;;;5069925;28;20379;-66
2022/08/20 14:10:53;;;;;;;18.77;15.90;;;;;;;;;;5069247;28;20505;-68
2022/08/20 14:13:21;;;;;;;22.67;16.77;;;;;;;;;;5069929;28;20047;-68
2022/08/20 14:15:46;;;;;;;16.38;14.20;;;;;;;;;;5062917;28;20048;-68
2022/08/20 14:18:13;;;;;;;17.23;14.07;;;;;;;;;;5060783;28;20124;-67
2022/08/20 14:20:39;;;;;;;14.65;12.75;;;;;;;;;;5069155;28;20052;-67
2022/08/20 14:23:05;;;;;;;15.20;13.30;;;;;;;;;;5069704;28;20127;-68
2022/08/20 14:25:30;;;;;;;13.73;12.32;;;;;;;;;;5069933;28;20127;-68
2022/08/20 14:27:57;;;;;;;16.13;13.98;;;;;;;;;;5062689;28;20084;-65
2022/08/20 14:30:29;;;;;;;17.40;13.73;;;;;;;;;;5064623;28;20044;-66
2022/08/20 14:32:55;;;;;;;17.35;14.32;;;;;;;;;;5029356;28;20076;-69